sensor_id;sensor_type;location;lat;lon;timestamp;P1;durP1;ratioP1;P2;durP2;ratioP2
7607;SDS011;3845;48.120;11.534;2022-07-29T00:02:06;1.57;;;1.40;;
7607;SDS011;3845;48.120;11.534;2022-07-29T00:04:33;2.03;;;1.50;;
7607;SDS011;3845;48.120;11.534;2022-07-29T00:06:59;1.60;;;1.30;;
7607;SDS011;3845;48.120;11.534;2022-07-29T00:09:24;1.60;;;1.50;;
7607;SDS011;3845;48.120;11.534;2022-07-29T00:11:50;1.60;;;1.50;;
7607;SDS011;3845;48.120;11.534;2022-07-29T00:14:15;1.40;;;1.30;;
7607;SDS011;3845;48.120;11.534;2022-07-29T00:16:40;2.00;;;1.60;;
7607;SDS011;3845;48.120;11.534;2022-07-29T00:19:06;2.37;;;1.70;;
7607;SDS011;3845;48.120;11.534;2022-07-29T00:21:31;1.67;;;1.57;;
7607;SDS011;3845;48.120;11.534;2022-07-29T00:23:56;3.30;;;1.70;;
7607;SDS011;3845;48.120;11.534;2022-07-29T00:26:22;2.10;;;1.80;;
7607;SDS011;3845;48.120;11.534;2022-07-29T00:28:47;2.53;;;2.00;;
7607;SDS011;3845;48.120;11.534;2022-07-29T00:31:12;3.27;;;1.80;;
7607;SDS011;3845;48.120;11.534;2022-07-29T00:33:38;3.70;;;1.70;;
7607;SDS011;3845;48.120;11.534;2022-07-29T00:36:03;2.00;;;1.80;;
7607;SDS011;3845;48.120;11.534;2022-07-29T00:38:29;1.70;;;1.60;;
7607;SDS011;3845;48.120;11.534;2022-07-29T00:40:54;1.67;;;1.57;;
7607;SDS011;3845;48.120;11.534;2022-07-29T00:43:19;2.20;;;1.90;;
7607;SDS011;3845;48.120;11.534;2022-07-29T00:45:45;1.63;;;1.53;;
7607;SDS011;3845;48.120;11.534;2022-07-29T00:48:10;2.57;;;1.40;;
7607;SDS011;3845;48.120;11.534;2022-07-29T00:50:36;1.47;;;1.37;;
7607;SDS011;3845;48.120;11.534;2022-07-29T00:53:02;1.40;;;1.30;;
7607;SDS011;3845;48.120;11.534;2022-07-29T00:55:28;1.60;;;1.50;;
7607;SDS011;3845;48.120;11.534;2022-07-29T00:57:54;1.73;;;1.33;;
7607;SDS011;3845;48.120;11.534;2022-07-29T01:00:21;1.53;;;1.30;;
7607;SDS011;3845;48.120;11.534;2022-07-29T01:02:48;1.33;;;1.23;;
7607;SDS011;3845;48.120;11.534;2022-07-29T01:05:14;1.67;;;1.20;;
7607;SDS011;3845;48.120;11.534;2022-07-29T01:07:41;1.50;;;1.40;;
7607;SDS011;3845;48.120;11.534;2022-07-29T01:10:07;1.47;;;1.30;;
7607;SDS011;3845;48.120;11.534;2022-07-29T01:12:34;1.73;;;1.30;;
7607;SDS011;3845;48.120;11.534;2022-07-29T01:15:01;1.77;;;1.37;;
7607;SDS011;3845;48.120;11.534;2022-07-29T01:17:36;3.00;;;1.50;;
7607;SDS011;3845;48.120;11.534;2022-07-29T01:22:44;2.00;;;1.37;;
7607;SDS011;3845;48.120;11.534;2022-07-29T01:30:59;2.13;;;1.33;;
7607;SDS011;3845;48.120;11.534;2022-07-29T01:33:25;2.37;;;1.20;;
7607;SDS011;3845;48.120;11.534;2022-07-29T01:36:10;1.40;;;1.30;;
7607;SDS011;3845;48.120;11.534;2022-07-29T01:38:41;1.73;;;1.40;;
7607;SDS011;3845;48.120;11.534;2022-07-29T01:41:09;1.23;;;1.13;;
7607;SDS011;3845;48.120;11.534;2022-07-29T01:43:39;1.30;;;1.20;;
7607;SDS011;3845;48.120;11.534;2022-07-29T01:46:09;1.30;;;1.20;;
7607;SDS011;3845;48.120;11.534;2022-07-29T01:51:49;1.83;;;1.50;;
7607;SDS011;3845;48.120;11.534;2022-07-29T01:54:07;1.60;;;1.30;;
7607;SDS011;3845;48.120;11.534;2022-07-29T01:56:35;1.67;;;1.33;;
7607;SDS011;3845;48.120;11.534;2022-07-29T01:59:03;1.90;;;1.20;;
7607;SDS011;3845;48.120;11.534;2022-07-29T02:01:30;1.40;;;1.30;;
7607;SDS011;3845;48.120;11.534;2022-07-29T02:03:56;1.20;;;1.10;;
7607;SDS011;3845;48.120;11.534;2022-07-29T02:06:23;1.30;;;1.20;;
7607;SDS011;3845;48.120;11.534;2022-07-29T02:08:49;1.30;;;1.20;;
7607;SDS011;3845;48.120;11.534;2022-07-29T02:11:16;2.77;;;2.20;;
7607;SDS011;3845;48.120;11.534;2022-07-29T02:13:41;1.60;;;1.40;;
7607;SDS011;3845;48.120;11.534;2022-07-29T02:16:08;1.70;;;1.50;;
7607;SDS011;3845;48.120;11.534;2022-07-29T02:18:35;1.40;;;1.30;;
7607;SDS011;3845;48.120;11.534;2022-07-29T02:21:02;1.37;;;1.10;;
7607;SDS011;3845;48.120;11.534;2022-07-29T02:23:28;1.73;;;1.30;;
7607;SDS011;3845;48.120;11.534;2022-07-29T02:25:56;2.57;;;1.30;;
7607;SDS011;3845;48.120;11.534;2022-07-29T02:28:22;1.40;;;1.30;;
7607;SDS011;3845;48.120;11.534;2022-07-29T02:30:49;1.33;;;1.20;;
7607;SDS011;3845;48.120;11.534;2022-07-29T02:33:16;1.57;;;1.20;;
7607;SDS011;3845;48.120;11.534;2022-07-29T02:35:43;1.43;;;1.33;;
7607;SDS011;3845;48.120;11.534;2022-07-29T02:38:12;1.30;;;1.20;;
7607;SDS011;3845;48.120;11.534;2022-07-29T02:40:56;1.37;;;1.27;;
7607;SDS011;3845;48.120;11.534;2022-07-29T02:43:23;1.40;;;1.30;;
7607;SDS011;3845;48.120;11.534;2022-07-29T02:45:51;1.53;;;1.30;;
7607;SDS011;3845;48.120;11.534;2022-07-29T02:48:17;2.17;;;1.20;;
7607;SDS011;3845;48.120;11.534;2022-07-29T02:50:48;1.23;;;1.10;;
7607;SDS011;3845;48.120;11.534;2022-07-29T02:53:16;1.90;;;1.30;;
7607;SDS011;3845;48.120;11.534;2022-07-29T02:55:44;1.70;;;1.50;;
7607;SDS011;3845;48.120;11.534;2022-07-29T02:58:27;1.50;;;1.40;;
7607;SDS011;3845;48.120;11.534;2022-07-29T03:00:55;1.93;;;1.47;;
7607;SDS011;3845;48.120;11.534;2022-07-29T03:03:22;1.57;;;1.17;;
7607;SDS011;3845;48.120;11.534;2022-07-29T03:05:52;1.50;;;1.40;;
7607;SDS011;3845;48.120;11.534;2022-07-29T03:08:19;1.10;;;1.00;;
7607;SDS011;3845;48.120;11.534;2022-07-29T03:10:45;1.27;;;1.17;;
7607;SDS011;3845;48.120;11.534;2022-07-29T03:13:12;1.20;;;1.10;;
7607;SDS011;3845;48.120;11.534;2022-07-29T03:15:38;1.20;;;1.10;;
7607;SDS011;3845;48.120;11.534;2022-07-29T03:18:03;1.30;;;1.20;;
7607;SDS011;3845;48.120;11.534;2022-07-29T03:20:30;1.33;;;1.23;;
7607;SDS011;3845;48.120;11.534;2022-07-29T03:22:56;1.07;;;0.93;;
7607;SDS011;3845;48.120;11.534;2022-07-29T03:25:21;1.30;;;1.10;;
7607;SDS011;3845;48.120;11.534;2022-07-29T03:27:46;1.40;;;1.10;;
7607;SDS011;3845;48.120;11.534;2022-07-29T03:30:12;1.10;;;1.00;;
7607;SDS011;3845;48.120;11.534;2022-07-29T03:32:39;1.20;;;1.10;;
7607;SDS011;3845;48.120;11.534;2022-07-29T03:35:05;1.50;;;1.13;;
7607;SDS011;3845;48.120;11.534;2022-07-29T03:37:31;1.30;;;1.20;;
7607;SDS011;3845;48.120;11.534;2022-07-29T03:39:58;1.20;;;1.10;;
7607;SDS011;3845;48.120;11.534;2022-07-29T03:42:28;2.87;;;1.10;;
7607;SDS011;3845;48.120;11.534;2022-07-29T03:44:55;1.50;;;1.20;;
7607;SDS011;3845;48.120;11.534;2022-07-29T03:47:23;1.67;;;1.20;;
7607;SDS011;3845;48.120;11.534;2022-07-29T03:49:51;1.53;;;1.10;;
7607;SDS011;3845;48.120;11.534;2022-07-29T03:52:17;1.73;;;1.20;;
7607;SDS011;3845;48.120;11.534;2022-07-29T03:54:43;1.17;;;1.07;;
7607;SDS011;3845;48.120;11.534;2022-07-29T03:57:08;1.20;;;1.10;;
7607;SDS011;3845;48.120;11.534;2022-07-29T03:59:35;2.30;;;1.20;;
7607;SDS011;3845;48.120;11.534;2022-07-29T04:02:03;1.30;;;1.20;;
7607;SDS011;3845;48.120;11.534;2022-07-29T04:04:32;1.20;;;1.10;;
7607;SDS011;3845;48.120;11.534;2022-07-29T04:06:58;2.33;;;1.40;;
7607;SDS011;3845;48.120;11.534;2022-07-29T04:09:23;1.63;;;1.40;;
7607;SDS011;3845;48.120;11.534;2022-07-29T04:11:49;1.30;;;1.20;;
7607;SDS011;3845;48.120;11.534;2022-07-29T04:14:14;2.33;;;1.20;;
7607;SDS011;3845;48.120;11.534;2022-07-29T04:16:39;1.60;;;1.40;;
7607;SDS011;3845;48.120;11.534;2022-07-29T04:19:05;1.97;;;1.50;;
7607;SDS011;3845;48.120;11.534;2022-07-29T04:21:30;3.40;;;1.30;;
7607;SDS011;3845;48.120;11.534;2022-07-29T04:23:55;1.50;;;1.30;;
7607;SDS011;3845;48.120;11.534;2022-07-29T04:26:21;1.50;;;1.40;;
7607;SDS011;3845;48.120;11.534;2022-07-29T04:28:46;1.40;;;1.30;;
7607;SDS011;3845;48.120;11.534;2022-07-29T04:31:12;2.23;;;1.70;;
7607;SDS011;3845;48.120;11.534;2022-07-29T04:33:38;2.90;;;1.40;;
7607;SDS011;3845;48.120;11.534;2022-07-29T04:36:04;1.60;;;1.37;;
7607;SDS011;3845;48.120;11.534;2022-07-29T04:38:29;1.67;;;1.57;;
7607;SDS011;3845;48.120;11.534;2022-07-29T04:40:55;1.67;;;1.50;;
7607;SDS011;3845;48.120;11.534;2022-07-29T04:43:20;1.73;;;1.40;;
7607;SDS011;3845;48.120;11.534;2022-07-29T04:45:45;2.73;;;1.50;;
7607;SDS011;3845;48.120;11.534;2022-07-29T04:48:11;2.50;;;1.57;;
7607;SDS011;3845;48.120;11.534;2022-07-29T04:50:39;1.70;;;1.57;;
7607;SDS011;3845;48.120;11.534;2022-07-29T04:53:05;1.60;;;1.50;;
7607;SDS011;3845;48.120;11.534;2022-07-29T04:55:31;2.13;;;1.80;;
7607;SDS011;3845;48.120;11.534;2022-07-29T04:57:56;2.00;;;1.60;;
7607;SDS011;3845;48.120;11.534;2022-07-29T05:00:21;3.00;;;1.70;;
7607;SDS011;3845;48.120;11.534;2022-07-29T05:02:48;1.50;;;1.40;;
7607;SDS011;3845;48.120;11.534;2022-07-29T05:05:13;1.57;;;1.47;;
7607;SDS011;3845;48.120;11.534;2022-07-29T05:07:39;1.60;;;1.50;;
7607;SDS011;3845;48.120;11.534;2022-07-29T05:10:04;1.73;;;1.50;;
7607;SDS011;3845;48.120;11.534;2022-07-29T05:12:30;1.63;;;1.40;;
7607;SDS011;3845;48.120;11.534;2022-07-29T05:14:55;1.73;;;1.40;;
7607;SDS011;3845;48.120;11.534;2022-07-29T05:17:20;1.43;;;1.30;;
7607;SDS011;3845;48.120;11.534;2022-07-29T05:19:46;1.57;;;1.40;;
7607;SDS011;3845;48.120;11.534;2022-07-29T05:22:11;1.73;;;1.40;;
7607;SDS011;3845;48.120;11.534;2022-07-29T05:24:36;1.77;;;1.60;;
7607;SDS011;3845;48.120;11.534;2022-07-29T05:27:02;3.80;;;1.60;;
7607;SDS011;3845;48.120;11.534;2022-07-29T05:29:27;1.73;;;1.57;;
7607;SDS011;3845;48.120;11.534;2022-07-29T05:31:52;1.70;;;1.60;;
7607;SDS011;3845;48.120;11.534;2022-07-29T05:34:18;1.57;;;1.47;;
7607;SDS011;3845;48.120;11.534;2022-07-29T05:36:44;2.07;;;1.50;;
7607;SDS011;3845;48.120;11.534;2022-07-29T05:39:10;1.83;;;1.60;;
7607;SDS011;3845;48.120;11.534;2022-07-29T05:41:36;1.80;;;1.50;;
7607;SDS011;3845;48.120;11.534;2022-07-29T05:44:01;1.67;;;1.50;;
7607;SDS011;3845;48.120;11.534;2022-07-29T05:46:27;1.60;;;1.50;;
7607;SDS011;3845;48.120;11.534;2022-07-29T05:48:52;1.53;;;1.43;;
7607;SDS011;3845;48.120;11.534;2022-07-29T05:51:17;1.70;;;1.60;;
7607;SDS011;3845;48.120;11.534;2022-07-29T05:53:43;1.63;;;1.53;;
7607;SDS011;3845;48.120;11.534;2022-07-29T05:56:09;4.80;;;4.30;;
7607;SDS011;3845;48.120;11.534;2022-07-29T05:58:35;3.80;;;3.40;;
7607;SDS011;3845;48.120;11.534;2022-07-29T06:01:01;2.73;;;2.53;;
7607;SDS011;3845;48.120;11.534;2022-07-29T06:03:26;2.50;;;2.30;;
7607;SDS011;3845;48.120;11.534;2022-07-29T06:05:52;2.97;;;2.10;;
7607;SDS011;3845;48.120;11.534;2022-07-29T06:08:17;3.80;;;1.93;;
7607;SDS011;3845;48.120;11.534;2022-07-29T06:10:43;4.50;;;1.90;;
7607;SDS011;3845;48.120;11.534;2022-07-29T06:13:08;1.87;;;1.70;;
7607;SDS011;3845;48.120;11.534;2022-07-29T06:15:34;1.93;;;1.50;;
7607;SDS011;3845;48.120;11.534;2022-07-29T06:17:59;1.80;;;1.63;;
7607;SDS011;3845;48.120;11.534;2022-07-29T06:20:25;1.92;;;1.70;;
7607;SDS011;3845;48.120;11.534;2022-07-29T06:22:50;2.58;;;1.70;;
7607;SDS011;3845;48.120;11.534;2022-07-29T06:25:15;2.00;;;1.67;;
7607;SDS011;3845;48.120;11.534;2022-07-29T06:27:41;2.10;;;1.90;;
7607;SDS011;3845;48.120;11.534;2022-07-29T06:30:06;2.05;;;1.85;;
7607;SDS011;3845;48.120;11.534;2022-07-29T06:32:32;2.30;;;1.80;;
7607;SDS011;3845;48.120;11.534;2022-07-29T06:34:58;2.45;;;2.00;;
7607;SDS011;3845;48.120;11.534;2022-07-29T06:37:23;1.60;;;1.50;;
7607;SDS011;3845;48.120;11.534;2022-07-29T06:39:48;1.83;;;1.70;;
7607;SDS011;3845;48.120;11.534;2022-07-29T06:42:34;2.17;;;1.33;;
7607;SDS011;3845;48.120;11.534;2022-07-29T06:44:59;1.48;;;1.38;;
7607;SDS011;3845;48.120;11.534;2022-07-29T06:47:24;1.60;;;1.50;;
7607;SDS011;3845;48.120;11.534;2022-07-29T06:49:50;1.52;;;1.40;;
7607;SDS011;3845;48.120;11.534;2022-07-29T06:52:15;1.75;;;1.60;;
7607;SDS011;3845;48.120;11.534;2022-07-29T06:54:40;2.25;;;2.03;;
7607;SDS011;3845;48.120;11.534;2022-07-29T06:57:12;2.60;;;2.33;;
7607;SDS011;3845;48.120;11.534;2022-07-29T06:59:37;3.15;;;2.85;;
7607;SDS011;3845;48.120;11.534;2022-07-29T07:02:03;3.47;;;3.15;;
7607;SDS011;3845;48.120;11.534;2022-07-29T07:04:28;2.90;;;2.60;;
7607;SDS011;3845;48.120;11.534;2022-07-29T07:06:53;2.67;;;2.00;;
7607;SDS011;3845;48.120;11.534;2022-07-29T07:09:20;1.88;;;1.70;;
7607;SDS011;3845;48.120;11.534;2022-07-29T07:11:45;1.85;;;1.65;;
7607;SDS011;3845;48.120;11.534;2022-07-29T07:14:11;2.10;;;1.70;;
7607;SDS011;3845;48.120;11.534;2022-07-29T07:16:36;1.50;;;1.40;;
7607;SDS011;3845;48.120;11.534;2022-07-29T07:19:01;1.30;;;1.20;;
7607;SDS011;3845;48.120;11.534;2022-07-29T07:21:27;2.42;;;1.70;;
7607;SDS011;3845;48.120;11.534;2022-07-29T07:23:52;2.83;;;1.90;;
7607;SDS011;3845;48.120;11.534;2022-07-29T07:26:18;2.92;;;2.60;;
7607;SDS011;3845;48.120;11.534;2022-07-29T07:28:43;2.72;;;2.45;;
7607;SDS011;3845;48.120;11.534;2022-07-29T07:31:08;2.15;;;1.95;;
7607;SDS011;3845;48.120;11.534;2022-07-29T07:33:34;1.98;;;1.67;;
7607;SDS011;3845;48.120;11.534;2022-07-29T07:35:59;2.28;;;1.75;;
7607;SDS011;3845;48.120;11.534;2022-07-29T07:38:25;1.70;;;1.60;;
7607;SDS011;3845;48.120;11.534;2022-07-29T07:40:50;3.42;;;2.00;;
7607;SDS011;3845;48.120;11.534;2022-07-29T07:43:15;3.65;;;1.77;;
7607;SDS011;3845;48.120;11.534;2022-07-29T07:45:41;2.22;;;1.77;;
7607;SDS011;3845;48.120;11.534;2022-07-29T07:48:06;1.70;;;1.60;;
7607;SDS011;3845;48.120;11.534;2022-07-29T07:50:31;1.80;;;1.48;;
7607;SDS011;3845;48.120;11.534;2022-07-29T07:52:57;3.13;;;1.43;;
7607;SDS011;3845;48.120;11.534;2022-07-29T07:55:22;1.77;;;1.40;;
7607;SDS011;3845;48.120;11.534;2022-07-29T07:57:48;2.30;;;1.60;;
7607;SDS011;3845;48.120;11.534;2022-07-29T08:00:13;1.73;;;1.63;;
7607;SDS011;3845;48.120;11.534;2022-07-29T08:02:40;1.67;;;1.30;;
7607;SDS011;3845;48.120;11.534;2022-07-29T08:05:08;1.60;;;1.50;;
7607;SDS011;3845;48.120;11.534;2022-07-29T08:07:35;1.70;;;1.60;;
7607;SDS011;3845;48.120;11.534;2022-07-29T08:10:00;1.70;;;1.53;;
7607;SDS011;3845;48.120;11.534;2022-07-29T08:12:25;1.40;;;1.30;;
7607;SDS011;3845;48.120;11.534;2022-07-29T08:14:51;1.90;;;1.70;;
7607;SDS011;3845;48.120;11.534;2022-07-29T08:17:16;3.10;;;1.50;;
7607;SDS011;3845;48.120;11.534;2022-07-29T08:19:41;2.43;;;2.00;;
7607;SDS011;3845;48.120;11.534;2022-07-29T08:22:07;4.10;;;2.47;;
7607;SDS011;3845;48.120;11.534;2022-07-29T08:24:32;2.63;;;2.40;;
7607;SDS011;3845;48.120;11.534;2022-07-29T08:27:17;3.53;;;2.03;;
7607;SDS011;3845;48.120;11.534;2022-07-29T08:29:43;3.20;;;1.80;;
7607;SDS011;3845;48.120;11.534;2022-07-29T08:32:08;1.47;;;1.30;;
7607;SDS011;3845;48.120;11.534;2022-07-29T08:34:33;2.70;;;1.67;;
7607;SDS011;3845;48.120;11.534;2022-07-29T08:36:59;2.33;;;2.03;;
7607;SDS011;3845;48.120;11.534;2022-07-29T08:39:24;3.90;;;2.20;;
7607;SDS011;3845;48.120;11.534;2022-07-29T08:41:50;3.93;;;3.20;;
7607;SDS011;3845;48.120;11.534;2022-07-29T08:44:16;2.80;;;2.40;;
7607;SDS011;3845;48.120;11.534;2022-07-29T08:46:42;2.50;;;2.30;;
7607;SDS011;3845;48.120;11.534;2022-07-29T08:49:08;2.43;;;2.23;;
7607;SDS011;3845;48.120;11.534;2022-07-29T08:51:33;2.10;;;1.90;;
7607;SDS011;3845;48.120;11.534;2022-07-29T08:54:01;2.40;;;2.20;;
7607;SDS011;3845;48.120;11.534;2022-07-29T08:56:27;2.27;;;2.07;;
7607;SDS011;3845;48.120;11.534;2022-07-29T08:58:52;2.43;;;1.63;;
7607;SDS011;3845;48.120;11.534;2022-07-29T09:01:21;3.53;;;2.30;;
7607;SDS011;3845;48.120;11.534;2022-07-29T09:03:47;3.50;;;3.10;;
7607;SDS011;3845;48.120;11.534;2022-07-29T09:06:13;7.90;;;3.63;;
7607;SDS011;3845;48.120;11.534;2022-07-29T09:08:39;4.33;;;3.80;;
7607;SDS011;3845;48.120;11.534;2022-07-29T09:11:05;3.47;;;2.97;;
7607;SDS011;3845;48.120;11.534;2022-07-29T09:13:32;2.57;;;2.00;;
7607;SDS011;3845;48.120;11.534;2022-07-29T09:15:58;2.90;;;2.13;;
7607;SDS011;3845;48.120;11.534;2022-07-29T09:18:42;2.50;;;1.97;;
7607;SDS011;3845;48.120;11.534;2022-07-29T09:21:10;2.23;;;1.90;;
7607;SDS011;3845;48.120;11.534;2022-07-29T09:24:08;2.00;;;1.80;;
7607;SDS011;3845;48.120;11.534;2022-07-29T09:26:36;2.13;;;1.90;;
7607;SDS011;3845;48.120;11.534;2022-07-29T09:31:47;3.00;;;1.90;;
7607;SDS011;3845;48.120;11.534;2022-07-29T09:34:15;2.40;;;2.00;;
7607;SDS011;3845;48.120;11.534;2022-07-29T09:36:46;2.00;;;1.80;;
7607;SDS011;3845;48.120;11.534;2022-07-29T09:39:12;3.40;;;2.20;;
7607;SDS011;3845;48.120;11.534;2022-07-29T09:41:46;1.87;;;1.77;;
7607;SDS011;3845;48.120;11.534;2022-07-29T09:44:13;4.40;;;2.37;;
7607;SDS011;3845;48.120;11.534;2022-07-29T09:46:39;2.90;;;2.20;;
7607;SDS011;3845;48.120;11.534;2022-07-29T09:51:36;4.60;;;4.20;;
7607;SDS011;3845;48.120;11.534;2022-07-29T09:54:02;3.93;;;3.53;;
7607;SDS011;3845;48.120;11.534;2022-07-29T09:56:45;3.57;;;2.70;;
7607;SDS011;3845;48.120;11.534;2022-07-29T09:59:12;3.27;;;2.53;;
7607;SDS011;3845;48.120;11.534;2022-07-29T10:01:37;2.70;;;2.50;;
7607;SDS011;3845;48.120;11.534;2022-07-29T10:04:03;3.87;;;3.40;;
7607;SDS011;3845;48.120;11.534;2022-07-29T10:06:28;4.60;;;3.10;;
7607;SDS011;3845;48.120;11.534;2022-07-29T10:08:53;3.70;;;3.20;;
7607;SDS011;3845;48.120;11.534;2022-07-29T10:11:19;3.20;;;2.90;;
7607;SDS011;3845;48.120;11.534;2022-07-29T10:13:46;4.87;;;2.70;;
7607;SDS011;3845;48.120;11.534;2022-07-29T10:16:12;3.00;;;2.70;;
7607;SDS011;3845;48.120;11.534;2022-07-29T10:18:39;3.57;;;3.10;;
7607;SDS011;3845;48.120;11.534;2022-07-29T10:21:06;4.10;;;3.70;;
7607;SDS011;3845;48.120;11.534;2022-07-29T10:23:32;5.33;;;4.47;;
7607;SDS011;3845;48.120;11.534;2022-07-29T10:25:58;3.97;;;3.67;;
7607;SDS011;3845;48.120;11.534;2022-07-29T10:28:25;3.97;;;2.70;;
7607;SDS011;3845;48.120;11.534;2022-07-29T10:30:50;3.27;;;2.50;;
7607;SDS011;3845;48.120;11.534;2022-07-29T10:34:04;3.80;;;2.40;;
7607;SDS011;3845;48.120;11.534;2022-07-29T10:38:58;5.30;;;4.30;;
7607;SDS011;3845;48.120;11.534;2022-07-29T10:41:47;7.37;;;6.67;;
7607;SDS011;3845;48.120;11.534;2022-07-29T10:44:21;5.40;;;4.70;;
7607;SDS011;3845;48.120;11.534;2022-07-29T10:46:48;7.80;;;7.00;;
7607;SDS011;3845;48.120;11.534;2022-07-29T10:54:16;5.37;;;2.80;;
7607;SDS011;3845;48.120;11.534;2022-07-29T10:56:42;3.43;;;2.70;;
7607;SDS011;3845;48.120;11.534;2022-07-29T11:01:45;2.63;;;2.43;;
7607;SDS011;3845;48.120;11.534;2022-07-29T11:04:11;2.67;;;2.40;;
7607;SDS011;3845;48.120;11.534;2022-07-29T11:09:30;5.60;;;5.00;;
7607;SDS011;3845;48.120;11.534;2022-07-29T11:11:56;6.70;;;5.80;;
7607;SDS011;3845;48.120;11.534;2022-07-29T11:17:25;5.17;;;4.67;;
7607;SDS011;3845;48.120;11.534;2022-07-29T11:19:50;3.70;;;3.30;;
7607;SDS011;3845;48.120;11.534;2022-07-29T11:22:32;3.77;;;3.20;;
7607;SDS011;3845;48.120;11.534;2022-07-29T11:27:44;3.40;;;3.10;;
7607;SDS011;3845;48.120;11.534;2022-07-29T11:30:10;3.60;;;3.30;;
7607;SDS011;3845;48.120;11.534;2022-07-29T11:32:38;3.23;;;2.67;;
7607;SDS011;3845;48.120;11.534;2022-07-29T11:37:43;3.27;;;2.60;;
7607;SDS011;3845;48.120;11.534;2022-07-29T11:40:12;4.33;;;2.80;;
7607;SDS011;3845;48.120;11.534;2022-07-29T11:42:39;5.30;;;3.27;;
7607;SDS011;3845;48.120;11.534;2022-07-29T11:45:09;3.00;;;2.80;;
7607;SDS011;3845;48.120;11.534;2022-07-29T11:47:52;3.00;;;2.60;;
7607;SDS011;3845;48.120;11.534;2022-07-29T11:53:03;3.63;;;2.60;;
7607;SDS011;3845;48.120;11.534;2022-07-29T11:55:35;2.60;;;2.40;;
7607;SDS011;3845;48.120;11.534;2022-07-29T11:58:02;3.90;;;2.50;;
7607;SDS011;3845;48.120;11.534;2022-07-29T12:00:29;3.10;;;2.13;;
7607;SDS011;3845;48.120;11.534;2022-07-29T12:03:02;5.80;;;2.80;;
7607;SDS011;3845;48.120;11.534;2022-07-29T12:05:30;6.30;;;2.47;;
7607;SDS011;3845;48.120;11.534;2022-07-29T12:08:03;5.27;;;2.97;;
7607;SDS011;3845;48.120;11.534;2022-07-29T12:10:31;2.90;;;2.60;;
7607;SDS011;3845;48.120;11.534;2022-07-29T12:12:57;2.80;;;2.43;;
7607;SDS011;3845;48.120;11.534;2022-07-29T12:15:22;2.77;;;2.57;;
7607;SDS011;3845;48.120;11.534;2022-07-29T12:17:49;2.70;;;2.50;;
7607;SDS011;3845;48.120;11.534;2022-07-29T12:20:21;3.70;;;3.20;;
7607;SDS011;3845;48.120;11.534;2022-07-29T12:22:51;5.10;;;4.30;;
7607;SDS011;3845;48.120;11.534;2022-07-29T12:25:18;3.73;;;3.30;;
7607;SDS011;3845;48.120;11.534;2022-07-29T12:27:44;3.63;;;3.33;;
7607;SDS011;3845;48.120;11.534;2022-07-29T12:30:11;3.83;;;3.10;;
7607;SDS011;3845;48.120;11.534;2022-07-29T12:32:38;2.73;;;2.53;;
7607;SDS011;3845;48.120;11.534;2022-07-29T12:35:08;2.80;;;2.50;;
7607;SDS011;3845;48.120;11.534;2022-07-29T12:37:34;2.87;;;2.20;;
7607;SDS011;3845;48.120;11.534;2022-07-29T12:40:01;4.63;;;2.70;;
7607;SDS011;3845;48.120;11.534;2022-07-29T12:42:27;4.30;;;2.93;;
7607;SDS011;3845;48.120;11.534;2022-07-29T12:44:53;4.43;;;2.60;;
7607;SDS011;3845;48.120;11.534;2022-07-29T12:47:18;6.57;;;2.37;;
7607;SDS011;3845;48.120;11.534;2022-07-29T12:49:44;2.47;;;2.27;;
7607;SDS011;3845;48.120;11.534;2022-07-29T12:54:55;7.43;;;4.50;;
7607;SDS011;3845;48.120;11.534;2022-07-29T12:57:21;4.27;;;2.93;;
7607;SDS011;3845;48.120;11.534;2022-07-29T13:02:24;4.83;;;2.47;;
7607;SDS011;3845;48.120;11.534;2022-07-29T13:04:56;3.07;;;2.23;;
7607;SDS011;3845;48.120;11.534;2022-07-29T13:07:27;2.80;;;2.50;;
7607;SDS011;3845;48.120;11.534;2022-07-29T13:09:54;3.40;;;2.30;;
7607;SDS011;3845;48.120;11.534;2022-07-29T13:12:34;3.37;;;2.20;;
7607;SDS011;3845;48.120;11.534;2022-07-29T13:14:59;2.30;;;2.10;;
7607;SDS011;3845;48.120;11.534;2022-07-29T13:17:25;4.37;;;2.07;;
7607;SDS011;3845;48.120;11.534;2022-07-29T13:20:07;4.93;;;2.67;;
7607;SDS011;3845;48.120;11.534;2022-07-29T13:22:37;2.97;;;2.37;;
7607;SDS011;3845;48.120;11.534;2022-07-29T13:25:04;2.13;;;1.93;;
7607;SDS011;3845;48.120;11.534;2022-07-29T13:27:33;8.73;;;2.57;;
7607;SDS011;3845;48.120;11.534;2022-07-29T13:30:01;3.40;;;2.60;;
7607;SDS011;3845;48.120;11.534;2022-07-29T13:32:29;3.27;;;2.60;;
7607;SDS011;3845;48.120;11.534;2022-07-29T13:34:55;7.00;;;6.30;;
7607;SDS011;3845;48.120;11.534;2022-07-29T13:37:21;9.03;;;5.87;;
7607;SDS011;3845;48.120;11.534;2022-07-29T13:39:46;6.80;;;3.50;;
7607;SDS011;3845;48.120;11.534;2022-07-29T13:42:12;4.43;;;3.10;;
7607;SDS011;3845;48.120;11.534;2022-07-29T13:44:40;3.30;;;2.53;;
7607;SDS011;3845;48.120;11.534;2022-07-29T13:47:06;6.67;;;5.70;;
7607;SDS011;3845;48.120;11.534;2022-07-29T13:49:32;7.53;;;5.73;;
7607;SDS011;3845;48.120;11.534;2022-07-29T13:51:58;6.50;;;5.00;;
7607;SDS011;3845;48.120;11.534;2022-07-29T13:54:23;3.73;;;3.13;;
7607;SDS011;3845;48.120;11.534;2022-07-29T13:56:49;2.97;;;2.63;;
7607;SDS011;3845;48.120;11.534;2022-07-29T13:59:15;2.70;;;2.50;;
7607;SDS011;3845;48.120;11.534;2022-07-29T14:01:41;4.13;;;2.23;;
7607;SDS011;3845;48.120;11.534;2022-07-29T14:04:07;3.73;;;2.60;;
7607;SDS011;3845;48.120;11.534;2022-07-29T14:06:33;2.70;;;2.40;;
7607;SDS011;3845;48.120;11.534;2022-07-29T14:08:58;2.77;;;2.37;;
7607;SDS011;3845;48.120;11.534;2022-07-29T14:11:23;4.90;;;2.57;;
7607;SDS011;3845;48.120;11.534;2022-07-29T14:13:49;3.27;;;2.30;;
7607;SDS011;3845;48.120;11.534;2022-07-29T14:16:14;2.20;;;2.00;;
7607;SDS011;3845;48.120;11.534;2022-07-29T14:18:39;3.13;;;2.30;;
7607;SDS011;3845;48.120;11.534;2022-07-29T14:21:05;2.50;;;2.30;;
7607;SDS011;3845;48.120;11.534;2022-07-29T14:23:30;2.40;;;2.20;;
7607;SDS011;3845;48.120;11.534;2022-07-29T14:25:55;4.00;;;3.07;;
7607;SDS011;3845;48.120;11.534;2022-07-29T14:28:21;4.90;;;4.00;;
7607;SDS011;3845;48.120;11.534;2022-07-29T14:30:46;4.43;;;3.63;;
7607;SDS011;3845;48.120;11.534;2022-07-29T14:33:11;7.60;;;5.53;;
7607;SDS011;3845;48.120;11.534;2022-07-29T14:35:37;6.13;;;4.73;;
7607;SDS011;3845;48.120;11.534;2022-07-29T14:38:02;6.10;;;2.93;;
7607;SDS011;3845;48.120;11.534;2022-07-29T14:40:27;3.00;;;2.60;;
7607;SDS011;3845;48.120;11.534;2022-07-29T14:42:53;6.07;;;2.50;;
7607;SDS011;3845;48.120;11.534;2022-07-29T14:45:18;5.27;;;4.17;;
7607;SDS011;3845;48.120;11.534;2022-07-29T14:47:43;6.70;;;6.10;;
7607;SDS011;3845;48.120;11.534;2022-07-29T14:50:09;4.60;;;3.73;;
7607;SDS011;3845;48.120;11.534;2022-07-29T14:52:34;3.10;;;2.60;;
7607;SDS011;3845;48.120;11.534;2022-07-29T14:55:00;2.57;;;2.30;;
7607;SDS011;3845;48.120;11.534;2022-07-29T14:57:25;2.50;;;2.30;;
7607;SDS011;3845;48.120;11.534;2022-07-29T14:59:50;3.57;;;2.50;;
7607;SDS011;3845;48.120;11.534;2022-07-29T15:02:16;2.40;;;2.20;;
7607;SDS011;3845;48.120;11.534;2022-07-29T15:04:42;3.90;;;3.50;;
7607;SDS011;3845;48.120;11.534;2022-07-29T15:07:07;3.90;;;2.70;;
7607;SDS011;3845;48.120;11.534;2022-07-29T15:09:33;4.00;;;3.50;;
7607;SDS011;3845;48.120;11.534;2022-07-29T15:11:58;2.90;;;2.70;;
7607;SDS011;3845;48.120;11.534;2022-07-29T15:14:23;3.20;;;2.50;;
7607;SDS011;3845;48.120;11.534;2022-07-29T15:16:49;3.87;;;2.30;;
7607;SDS011;3845;48.120;11.534;2022-07-29T15:19:14;2.57;;;2.37;;
7607;SDS011;3845;48.120;11.534;2022-07-29T15:21:39;3.10;;;2.40;;
7607;SDS011;3845;48.120;11.534;2022-07-29T15:24:05;2.90;;;2.47;;
7607;SDS011;3845;48.120;11.534;2022-07-29T15:26:32;4.03;;;2.77;;
7607;SDS011;3845;48.120;11.534;2022-07-29T15:28:57;3.77;;;3.37;;
7607;SDS011;3845;48.120;11.534;2022-07-29T15:31:22;6.30;;;5.70;;
7607;SDS011;3845;48.120;11.534;2022-07-29T15:33:48;5.53;;;5.03;;
7607;SDS011;3845;48.120;11.534;2022-07-29T15:36:13;6.27;;;5.67;;
7607;SDS011;3845;48.120;11.534;2022-07-29T15:38:39;5.87;;;5.30;;
7607;SDS011;3845;48.120;11.534;2022-07-29T15:41:05;4.17;;;3.77;;
7607;SDS011;3845;48.120;11.534;2022-07-29T15:43:31;5.40;;;4.70;;
7607;SDS011;3845;48.120;11.534;2022-07-29T15:45:56;8.07;;;5.50;;